sensor_id;sensor_type;location;lat;lon;timestamp;pressure;altitude;pressure_sealevel;temperature;humidity
36514;BME280;66331;46.796;9.824;2023-02-10T00:02:07;85684.71;;;-12.45;37.15
36514;BME280;66331;46.796;9.824;2023-02-10T00:04:35;85688.07;;;-12.85;37.52
36514;BME280;66331;46.796;9.824;2023-02-10T00:07:02;85685.49;;;-12.96;38.26
36514;BME280;66331;46.796;9.824;2023-02-10T00:09:30;85688.93;;;-12.33;37.71
36514;BME280;66331;46.796;9.824;2023-02-10T00:11:57;85695.17;;;-13.41;39.04
36514;BME280;66331;46.796;9.824;2023-02-10T00:14:26;85702.94;;;-13.48;38.48
36514;BME280;66331;46.796;9.824;2023-02-10T00:16:54;85705.35;;;-13.36;38.17
36514;BME280;66331;46.796;9.824;2023-02-10T00:19:22;85704.22;;;-13.60;38.68
36514;BME280;66331;46.796;9.824;2023-02-10T00:21:50;85709.62;;;-13.51;39.34
36514;BME280;66331;46.796;9.824;2023-02-10T00:24:17;85715.33;;;-13.88;39.17
36514;BME280;66331;46.796;9.824;2023-02-10T00:26:45;85718.21;;;-13.46;39.58
36514;BME280;66331;46.796;9.824;2023-02-10T00:29:13;85721.95;;;-13.35;38.89
36514;BME280;66331;46.796;9.824;2023-02-10T00:31:40;85724.16;;;-12.81;37.98
36514;BME280;66331;46.796;9.824;2023-02-10T00:34:10;85727.69;;;-12.76;38.15
36514;BME280;66331;46.796;9.824;2023-02-10T00:36:38;85736.91;;;-14.07;39.65
36514;BME280;66331;46.796;9.824;2023-02-10T00:39:05;85737.28;;;-13.41;38.93
36514;BME280;66331;46.796;9.824;2023-02-10T00:41:32;85735.83;;;-13.08;38.40
36514;BME280;66331;46.796;9.824;2023-02-10T00:44:00;85739.14;;;-13.33;38.74
36514;BME280;66331;46.796;9.824;2023-02-10T00:46:26;85746.05;;;-12.87;38.03
36514;BME280;66331;46.796;9.824;2023-02-10T00:48:54;85744.36;;;-12.61;37.52
36514;BME280;66331;46.796;9.824;2023-02-10T00:51:21;85746.90;;;-13.04;37.82
36514;BME280;66331;46.796;9.824;2023-02-10T00:53:49;85743.61;;;-12.87;37.51
36514;BME280;66331;46.796;9.824;2023-02-10T00:56:18;85742.53;;;-13.59;38.81
36514;BME280;66331;46.796;9.824;2023-02-10T00:58:47;85743.89;;;-13.08;37.71
36514;BME280;66331;46.796;9.824;2023-02-10T01:01:15;85742.16;;;-13.14;38.04
36514;BME280;66331;46.796;9.824;2023-02-10T01:03:42;85745.20;;;-13.23;37.86
36514;BME280;66331;46.796;9.824;2023-02-10T01:06:13;85746.23;;;-13.00;38.44
36514;BME280;66331;46.796;9.824;2023-02-10T01:08:41;85744.62;;;-12.82;37.11
36514;BME280;66331;46.796;9.824;2023-02-10T01:11:11;85749.45;;;-11.99;36.28
36514;BME280;66331;46.796;9.824;2023-02-10T01:13:39;85752.81;;;-14.20;39.83
36514;BME280;66331;46.796;9.824;2023-02-10T01:16:10;85751.15;;;-14.10;39.33
36514;BME280;66331;46.796;9.824;2023-02-10T01:18:39;85743.49;;;-13.26;37.85
36514;BME280;66331;46.796;9.824;2023-02-10T01:21:08;85747.17;;;-13.92;39.49
36514;BME280;66331;46.796;9.824;2023-02-10T01:23:37;85757.49;;;-14.56;40.22
36514;BME280;66331;46.796;9.824;2023-02-10T01:26:06;85759.57;;;-14.04;39.33
36514;BME280;66331;46.796;9.824;2023-02-10T01:28:36;85753.14;;;-14.69;40.33
36514;BME280;66331;46.796;9.824;2023-02-10T01:31:05;85750.88;;;-13.77;38.77
36514;BME280;66331;46.796;9.824;2023-02-10T01:33:33;85743.63;;;-14.12;39.39
36514;BME280;66331;46.796;9.824;2023-02-10T01:36:04;85752.85;;;-14.01;38.66
36514;BME280;66331;46.796;9.824;2023-02-10T01:38:31;85748.74;;;-13.77;38.16
36514;BME280;66331;46.796;9.824;2023-02-10T01:40:59;85746.79;;;-13.72;38.46
36514;BME280;66331;46.796;9.824;2023-02-10T01:43:28;85754.25;;;-13.90;39.16
36514;BME280;66331;46.796;9.824;2023-02-10T01:45:56;85749.51;;;-12.95;38.43
36514;BME280;66331;46.796;9.824;2023-02-10T01:48:25;85749.94;;;-13.35;38.99
36514;BME280;66331;46.796;9.824;2023-02-10T01:51:01;85745.32;;;-14.34;39.22
36514;BME280;66331;46.796;9.824;2023-02-10T01:53:31;85753.40;;;-13.72;38.43
36514;BME280;66331;46.796;9.824;2023-02-10T01:56:02;85755.69;;;-14.96;40.90
36514;BME280;66331;46.796;9.824;2023-02-10T01:58:32;85757.84;;;-14.65;40.33
36514;BME280;66331;46.796;9.824;2023-02-10T02:01:01;85753.64;;;-14.24;39.69
36514;BME280;66331;46.796;9.824;2023-02-10T02:03:30;85746.20;;;-13.03;38.35
36514;BME280;66331;46.796;9.824;2023-02-10T02:05:58;85744.81;;;-14.53;39.61
36514;BME280;66331;46.796;9.824;2023-02-10T02:08:29;85739.75;;;-13.68;38.82
36514;BME280;66331;46.796;9.824;2023-02-10T02:11:04;85736.77;;;-14.03;39.54
36514;BME280;66331;46.796;9.824;2023-02-10T02:13:49;85742.85;;;-14.12;39.65
36514;BME280;66331;46.796;9.824;2023-02-10T02:16:31;85744.15;;;-13.76;38.51
36514;BME280;66331;46.796;9.824;2023-02-10T02:23:08;85741.02;;;-13.65;39.61
36514;BME280;66331;46.796;9.824;2023-02-10T02:25:55;85744.28;;;-13.83;38.48
36514;BME280;66331;46.796;9.824;2023-02-10T02:28:34;85744.69;;;-13.08;37.96
36514;BME280;66331;46.796;9.824;2023-02-10T02:32:23;85743.38;;;-13.61;38.14
36514;BME280;66331;46.796;9.824;2023-02-10T02:34:56;85741.73;;;-13.27;38.11
36514;BME280;66331;46.796;9.824;2023-02-10T02:37:29;85748.24;;;-13.37;38.32
36514;BME280;66331;46.796;9.824;2023-02-10T02:39:58;85746.34;;;-14.13;38.66
36514;BME280;66331;46.796;9.824;2023-02-10T02:42:27;85741.60;;;-14.04;38.76
36514;BME280;66331;46.796;9.824;2023-02-10T02:44:58;85741.90;;;-13.43;38.36
36514;BME280;66331;46.796;9.824;2023-02-10T02:47:38;85741.85;;;-14.68;39.57
36514;BME280;66331;46.796;9.824;2023-02-10T02:50:21;85745.92;;;-14.28;38.84
36514;BME280;66331;46.796;9.824;2023-02-10T02:52:59;85746.77;;;-14.14;39.14
36514;BME280;66331;46.796;9.824;2023-02-10T02:55:41;85744.58;;;-14.48;38.62
36514;BME280;66331;46.796;9.824;2023-02-10T02:58:17;85746.02;;;-14.67;39.28
36514;BME280;66331;46.796;9.824;2023-02-10T03:00:47;85744.29;;;-14.56;39.67
36514;BME280;66331;46.796;9.824;2023-02-10T03:03:17;85746.14;;;-15.10;40.86
36514;BME280;66331;46.796;9.824;2023-02-10T03:05:45;85745.44;;;-14.25;39.33
36514;BME280;66331;46.796;9.824;2023-02-10T03:08:13;85744.01;;;-14.73;39.42
36514;BME280;66331;46.796;9.824;2023-02-10T03:10:40;85745.43;;;-13.65;38.60
36514;BME280;66331;46.796;9.824;2023-02-10T03:13:08;85749.90;;;-14.79;40.04
36514;BME280;66331;46.796;9.824;2023-02-10T03:15:36;85748.51;;;-14.30;39.49
36514;BME280;66331;46.796;9.824;2023-02-10T03:18:04;85746.29;;;-14.30;39.69
36514;BME280;66331;46.796;9.824;2023-02-10T03:20:31;85748.27;;;-14.34;39.78
36514;BME280;66331;46.796;9.824;2023-02-10T03:22:59;85747.32;;;-14.60;38.61
36514;BME280;66331;46.796;9.824;2023-02-10T03:25:27;85750.30;;;-14.54;38.81
36514;BME280;66331;46.796;9.824;2023-02-10T03:27:55;85756.36;;;-14.63;39.69
36514;BME280;66331;46.796;9.824;2023-02-10T03:30:22;85751.47;;;-15.14;40.52
36514;BME280;66331;46.796;9.824;2023-02-10T03:32:49;85752.78;;;-15.07;40.91
36514;BME280;66331;46.796;9.824;2023-02-10T03:35:16;85752.76;;;-14.87;40.55
36514;BME280;66331;46.796;9.824;2023-02-10T03:37:43;85755.43;;;-15.07;40.40
36514;BME280;66331;46.796;9.824;2023-02-10T03:40:11;85758.72;;;-15.10;40.54
36514;BME280;66331;46.796;9.824;2023-02-10T03:42:38;85762.35;;;-14.53;39.57
36514;BME280;66331;46.796;9.824;2023-02-10T03:45:06;85763.80;;;-14.32;39.00
36514;BME280;66331;46.796;9.824;2023-02-10T03:47:33;85768.00;;;-13.82;38.48
36514;BME280;66331;46.796;9.824;2023-02-10T03:49:59;85770.43;;;-13.98;38.58
36514;BME280;66331;46.796;9.824;2023-02-10T03:52:31;85771.60;;;-13.93;38.91
36514;BME280;66331;46.796;9.824;2023-02-10T03:54:58;85775.48;;;-13.63;38.21
36514;BME280;66331;46.796;9.824;2023-02-10T03:57:25;85783.60;;;-14.60;39.84
36514;BME280;66331;46.796;9.824;2023-02-10T03:59:51;85778.95;;;-13.48;38.33
36514;BME280;66331;46.796;9.824;2023-02-10T04:02:19;85791.29;;;-14.59;40.08
36514;BME280;66331;46.796;9.824;2023-02-10T04:04:46;85796.08;;;-14.32;40.17
36514;BME280;66331;46.796;9.824;2023-02-10T04:07:13;85797.13;;;-14.95;41.21
36514;BME280;66331;46.796;9.824;2023-02-10T04:09:41;85795.17;;;-14.03;39.26
36514;BME280;66331;46.796;9.824;2023-02-10T04:12:07;85794.82;;;-14.08;38.97
36514;BME280;66331;46.796;9.824;2023-02-10T04:14:34;85798.06;;;-14.64;40.80
36514;BME280;66331;46.796;9.824;2023-02-10T04:17:02;85800.93;;;-14.74;40.43
36514;BME280;66331;46.796;9.824;2023-02-10T04:19:29;85805.40;;;-14.65;39.46
36514;BME280;66331;46.796;9.824;2023-02-10T04:21:57;85802.57;;;-14.25;39.39
36514;BME280;66331;46.796;9.824;2023-02-10T04:24:23;85801.04;;;-14.91;40.23
36514;BME280;66331;46.796;9.824;2023-02-10T04:26:50;85801.75;;;-13.83;39.07
36514;BME280;66331;46.796;9.824;2023-02-10T04:29:17;85801.82;;;-13.92;39.66
36514;BME280;66331;46.796;9.824;2023-02-10T04:31:43;85801.78;;;-15.35;40.62
36514;BME280;66331;46.796;9.824;2023-02-10T04:34:10;85804.00;;;-14.75;40.03
36514;BME280;66331;46.796;9.824;2023-02-10T04:36:37;85802.51;;;-13.94;39.39
36514;BME280;66331;46.796;9.824;2023-02-10T04:39:04;85802.34;;;-13.77;38.96
36514;BME280;66331;46.796;9.824;2023-02-10T04:41:32;85804.35;;;-13.95;38.95
36514;BME280;66331;46.796;9.824;2023-02-10T04:44:00;85806.91;;;-14.65;39.05
36514;BME280;66331;46.796;9.824;2023-02-10T04:46:27;85803.61;;;-15.03;39.89
36514;BME280;66331;46.796;9.824;2023-02-10T04:48:55;85802.23;;;-14.17;38.62
36514;BME280;66331;46.796;9.824;2023-02-10T04:51:22;85802.52;;;-13.95;38.62
36514;BME280;66331;46.796;9.824;2023-02-10T04:53:50;85806.84;;;-14.00;38.45
36514;BME280;66331;46.796;9.824;2023-02-10T04:56:17;85805.92;;;-14.05;37.81
36514;BME280;66331;46.796;9.824;2023-02-10T04:58:46;85804.91;;;-13.58;37.90
36514;BME280;66331;46.796;9.824;2023-02-10T05:01:13;85805.23;;;-13.75;37.82
36514;BME280;66331;46.796;9.824;2023-02-10T05:03:40;85805.03;;;-13.81;38.09
36514;BME280;66331;46.796;9.824;2023-02-10T05:06:09;85809.70;;;-14.67;39.38
36514;BME280;66331;46.796;9.824;2023-02-10T05:08:36;85813.39;;;-15.81;41.11
36514;BME280;66331;46.796;9.824;2023-02-10T05:11:04;85807.68;;;-14.29;38.94
36514;BME280;66331;46.796;9.824;2023-02-10T05:13:31;85808.39;;;-14.74;39.94
36514;BME280;66331;46.796;9.824;2023-02-10T05:15:58;85810.67;;;-14.72;39.08
36514;BME280;66331;46.796;9.824;2023-02-10T05:18:26;85806.31;;;-14.21;38.42
36514;BME280;66331;46.796;9.824;2023-02-10T05:20:53;85809.29;;;-14.43;38.90
36514;BME280;66331;46.796;9.824;2023-02-10T05:23:20;85809.37;;;-14.63;38.14
36514;BME280;66331;46.796;9.824;2023-02-10T05:25:47;85806.76;;;-14.43;38.58
36514;BME280;66331;46.796;9.824;2023-02-10T05:28:14;85811.86;;;-14.06;38.19
36514;BME280;66331;46.796;9.824;2023-02-10T05:30:41;85810.17;;;-14.20;37.92
36514;BME280;66331;46.796;9.824;2023-02-10T05:33:08;85812.16;;;-14.77;39.35
36514;BME280;66331;46.796;9.824;2023-02-10T05:35:35;85811.46;;;-13.69;38.51
36514;BME280;66331;46.796;9.824;2023-02-10T05:38:02;85817.41;;;-14.52;39.59
36514;BME280;66331;46.796;9.824;2023-02-10T05:40:30;85828.37;;;-15.78;42.18
36514;BME280;66331;46.796;9.824;2023-02-10T05:42:58;85825.08;;;-16.26;42.63
36514;BME280;66331;46.796;9.824;2023-02-10T05:45:24;85813.31;;;-15.24;41.59
36514;BME280;66331;46.796;9.824;2023-02-10T05:47:51;85811.20;;;-14.32;39.35
36514;BME280;66331;46.796;9.824;2023-02-10T05:50:18;85818.17;;;-16.00;42.57
36514;BME280;66331;46.796;9.824;2023-02-10T05:52:46;85821.93;;;-15.55;41.74
36514;BME280;66331;46.796;9.824;2023-02-10T05:55:13;85821.61;;;-14.37;40.17
36514;BME280;66331;46.796;9.824;2023-02-10T05:57:40;85828.11;;;-14.07;39.53
36514;BME280;66331;46.796;9.824;2023-02-10T06:00:08;85831.80;;;-15.47;41.55
36514;BME280;66331;46.796;9.824;2023-02-10T06:02:36;85833.03;;;-14.24;40.17
36514;BME280;66331;46.796;9.824;2023-02-10T06:05:04;85826.80;;;-14.38;39.99
36514;BME280;66331;46.796;9.824;2023-02-10T06:07:31;85827.77;;;-14.02;38.89
36514;BME280;66331;46.796;9.824;2023-02-10T06:09:57;85833.88;;;-16.00;41.52
36514;BME280;66331;46.796;9.824;2023-02-10T06:12:24;85831.94;;;-15.33;40.78
36514;BME280;66331;46.796;9.824;2023-02-10T06:14:52;85832.25;;;-14.35;39.80
36514;BME280;66331;46.796;9.824;2023-02-10T06:17:19;85836.72;;;-14.22;39.28
36514;BME280;66331;46.796;9.824;2023-02-10T06:19:46;85836.68;;;-15.08;40.27
36514;BME280;66331;46.796;9.824;2023-02-10T06:22:13;85835.77;;;-13.86;38.49
36514;BME280;66331;46.796;9.824;2023-02-10T06:24:40;85826.03;;;-13.90;38.62
36514;BME280;66331;46.796;9.824;2023-02-10T06:27:08;85831.24;;;-15.52;40.65
36514;BME280;66331;46.796;9.824;2023-02-10T06:29:35;85832.80;;;-15.35;40.14
36514;BME280;66331;46.796;9.824;2023-02-10T06:32:02;85835.57;;;-15.40;40.56
36514;BME280;66331;46.796;9.824;2023-02-10T06:34:29;85839.30;;;-15.55;40.93
36514;BME280;66331;46.796;9.824;2023-02-10T06:36:56;85840.13;;;-14.36;39.27
36514;BME280;66331;46.796;9.824;2023-02-10T06:39:24;85840.92;;;-14.90;39.83
36514;BME280;66331;46.796;9.824;2023-02-10T06:41:56;85843.69;;;-14.09;39.34
36514;BME280;66331;46.796;9.824;2023-02-10T06:44:23;85841.10;;;-14.66;40.40
36514;BME280;66331;46.796;9.824;2023-02-10T06:46:50;85842.52;;;-14.08;39.34
36514;BME280;66331;46.796;9.824;2023-02-10T06:49:18;85847.62;;;-13.95;38.82
36514;BME280;66331;46.796;9.824;2023-02-10T06:51:46;85845.38;;;-14.95;39.55
36514;BME280;66331;46.796;9.824;2023-02-10T06:54:13;85843.76;;;-14.58;39.79
36514;BME280;66331;46.796;9.824;2023-02-10T06:56:42;85846.62;;;-13.65;38.35
36514;BME280;66331;46.796;9.824;2023-02-10T06:59:08;85849.28;;;-14.96;39.51
36514;BME280;66331;46.796;9.824;2023-02-10T07:01:35;85852.71;;;-14.69;39.51
36514;BME280;66331;46.796;9.824;2023-02-10T07:04:03;85854.09;;;-15.18;40.53
36514;BME280;66331;46.796;9.824;2023-02-10T07:06:30;85855.97;;;-15.10;40.80
36514;BME280;66331;46.796;9.824;2023-02-10T07:08:58;85860.43;;;-15.01;40.61
36514;BME280;66331;46.796;9.824;2023-02-10T07:11:37;85859.31;;;-14.36;38.85
36514;BME280;66331;46.796;9.824;2023-02-10T07:14:05;85858.90;;;-14.18;38.12
36514;BME280;66331;46.796;9.824;2023-02-10T07:16:32;85860.92;;;-13.44;37.74
36514;BME280;66331;46.796;9.824;2023-02-10T07:18:59;85867.25;;;-14.71;39.24
36514;BME280;66331;46.796;9.824;2023-02-10T07:21:26;85867.65;;;-14.60;38.63
36514;BME280;66331;46.796;9.824;2023-02-10T07:23:53;85868.15;;;-15.14;39.73
36514;BME280;66331;46.796;9.824;2023-02-10T07:26:20;85863.58;;;-14.22;38.29
36514;BME280;66331;46.796;9.824;2023-02-10T07:28:47;85863.85;;;-14.71;38.43
36514;BME280;66331;46.796;9.824;2023-02-10T07:31:14;85869.05;;;-14.25;37.94
36514;BME280;66331;46.796;9.824;2023-02-10T07:33:41;85865.15;;;-13.75;37.66
36514;BME280;66331;46.796;9.824;2023-02-10T07:36:08;85867.83;;;-14.45;38.43
36514;BME280;66331;46.796;9.824;2023-02-10T07:38:35;85864.14;;;-14.10;38.00
36514;BME280;66331;46.796;9.824;2023-02-10T07:41:03;85865.64;;;-14.47;38.49
36514;BME280;66331;46.796;9.824;2023-02-10T07:43:31;85866.66;;;-14.05;38.28
36514;BME280;66331;46.796;9.824;2023-02-10T07:45:58;85865.61;;;-14.60;38.63
36514;BME280;66331;46.796;9.824;2023-02-10T07:48:26;85866.58;;;-15.52;40.29
36514;BME280;66331;46.796;9.824;2023-02-10T07:50:53;85864.63;;;-14.14;38.90
36514;BME280;66331;46.796;9.824;2023-02-10T07:53:21;85861.62;;;-14.10;38.08
36514;BME280;66331;46.796;9.824;2023-02-10T07:55:48;85868.55;;;-15.29;38.90
36514;BME280;66331;46.796;9.824;2023-02-10T07:58:15;85866.88;;;-14.21;38.20
36514;BME280;66331;46.796;9.824;2023-02-10T08:00:47;85863.21;;;-14.17;37.91
36514;BME280;66331;46.796;9.824;2023-02-10T08:03:14;85864.91;;;-13.95;38.03
36514;BME280;66331;46.796;9.824;2023-02-10T08:05:42;85861.61;;;-13.48;37.96
36514;BME280;66331;46.796;9.824;2023-02-10T08:08:09;85872.09;;;-14.30;38.59
36514;BME280;66331;46.796;9.824;2023-02-10T08:10:37;85871.93;;;-13.49;38.16
36514;BME280;66331;46.796;9.824;2023-02-10T08:13:10;85877.96;;;-14.03;39.16
36514;BME280;66331;46.796;9.824;2023-02-10T08:15:37;85879.27;;;-14.39;38.96
36514;BME280;66331;46.796;9.824;2023-02-10T08:18:04;85880.03;;;-13.76;37.55
36514;BME280;66331;46.796;9.824;2023-02-10T08:20:32;85875.82;;;-13.68;38.65
36514;BME280;66331;46.796;9.824;2023-02-10T08:23:00;85875.47;;;-14.52;40.31
36514;BME280;66331;46.796;9.824;2023-02-10T08:25:27;85877.22;;;-13.75;39.06
36514;BME280;66331;46.796;9.824;2023-02-10T08:27:55;85879.54;;;-13.93;38.54
36514;BME280;66331;46.796;9.824;2023-02-10T08:30:22;85880.17;;;-13.98;39.60
36514;BME280;66331;46.796;9.824;2023-02-10T08:32:49;85881.47;;;-13.93;38.39
36514;BME280;66331;46.796;9.824;2023-02-10T08:35:22;85877.11;;;-13.62;38.57
36514;BME280;66331;46.796;9.824;2023-02-10T08:37:49;85879.76;;;-13.26;38.09
36514;BME280;66331;46.796;9.824;2023-02-10T08:40:17;85883.47;;;-13.40;38.78
36514;BME280;66331;46.796;9.824;2023-02-10T08:42:43;85880.21;;;-13.73;39.15
36514;BME280;66331;46.796;9.824;2023-02-10T08:45:11;85882.54;;;-13.60;38.91
36514;BME280;66331;46.796;9.824;2023-02-10T08:47:39;85883.23;;;-12.88;37.85
36514;BME280;66331;46.796;9.824;2023-02-10T08:50:06;85880.90;;;-12.83;37.82
36514;BME280;66331;46.796;9.824;2023-02-10T08:52:33;85879.53;;;-12.81;38.63
36514;BME280;66331;46.796;9.824;2023-02-10T08:55:01;85876.82;;;-13.07;37.72
36514;BME280;66331;46.796;9.824;2023-02-10T08:57:45;85869.64;;;-12.54;36.43
36514;BME280;66331;46.796;9.824;2023-02-10T09:00:13;85871.48;;;-13.21;38.28
36514;BME280;66331;46.796;9.824;2023-02-10T09:02:40;85873.43;;;-12.12;35.99
36514;BME280;66331;46.796;9.824;2023-02-10T09:05:07;85872.82;;;-12.08;36.12
36514;BME280;66331;46.796;9.824;2023-02-10T09:07:35;85871.03;;;-11.99;35.50
36514;BME280;66331;46.796;9.824;2023-02-10T09:10:03;85870.25;;;-11.62;35.32
36514;BME280;66331;46.796;9.824;2023-02-10T09:12:30;85866.22;;;-11.12;34.79
36514;BME280;66331;46.796;9.824;2023-02-10T09:14:58;85868.25;;;-11.03;34.40
36514;BME280;66331;46.796;9.824;2023-02-10T09:17:26;85868.69;;;-10.86;34.82
36514;BME280;66331;46.796;9.824;2023-02-10T09:19:56;85866.92;;;-10.34;34.39
36514;BME280;66331;46.796;9.824;2023-02-10T09:22:22;85868.65;;;-11.80;36.93
36514;BME280;66331;46.796;9.824;2023-02-10T09:25:00;85866.47;;;-11.01;34.85
36514;BME280;66331;46.796;9.824;2023-02-10T09:27:33;85866.07;;;-10.71;33.69
36514;BME280;66331;46.796;9.824;2023-02-10T09:30:00;85862.29;;;-10.30;33.33
36514;BME280;66331;46.796;9.824;2023-02-10T09:32:29;85855.63;;;-10.25;32.57
36514;BME280;66331;46.796;9.824;2023-02-10T09:34:56;85855.75;;;-10.15;32.31
36514;BME280;66331;46.796;9.824;2023-02-10T09:37:23;85852.90;;;-9.79;32.45
36514;BME280;66331;46.796;9.824;2023-02-10T09:39:50;85852.64;;;-10.08;33.04
36514;BME280;66331;46.796;9.824;2023-02-10T09:42:26;85854.38;;;-9.42;34.48
36514;BME280;66331;46.796;9.824;2023-02-10T09:45:03;85853.47;;;-9.61;34.16
36514;BME280;66331;46.796;9.824;2023-02-10T09:47:38;85851.81;;;-9.53;33.06
36514;BME280;66331;46.796;9.824;2023-02-10T09:50:23;85850.94;;;-9.29;31.74
36514;BME280;66331;46.796;9.824;2023-02-10T09:53:03;85850.66;;;-9.69;31.66
36514;BME280;66331;46.796;9.824;2023-02-10T09:55:34;85854.17;;;-9.12;31.54
36514;BME280;66331;46.796;9.824;2023-02-10T09:58:10;85855.07;;;-8.94;31.20
36514;BME280;66331;46.796;9.824;2023-02-10T10:00:43;85851.91;;;-8.64;29.92
36514;BME280;66331;46.796;9.824;2023-02-10T10:03:14;85852.31;;;-8.57;29.39
36514;BME280;66331;46.796;9.824;2023-02-10T10:05:50;85849.85;;;-8.14;29.09
36514;BME280;66331;46.796;9.824;2023-02-10T10:08:25;85851.44;;;-8.20;30.24
36514;BME280;66331;46.796;9.824;2023-02-10T10:10:59;85849.90;;;-8.25;30.36
36514;BME280;66331;46.796;9.824;2023-02-10T10:13:28;85847.17;;;-7.97;29.87
36514;BME280;66331;46.796;9.824;2023-02-10T10:16:12;85849.08;;;-7.79;29.72
36514;BME280;66331;46.796;9.824;2023-02-10T10:18:47;85850.59;;;-7.74;29.72
36514;BME280;66331;46.796;9.824;2023-02-10T10:21:26;85850.78;;;-7.18;29.07
36514;BME280;66331;46.796;9.824;2023-02-10T10:24:09;85854.68;;;-7.36;28.52
36514;BME280;66331;46.796;9.824;2023-02-10T10:26:46;85855.72;;;-7.23;27.75
36514;BME280;66331;46.796;9.824;2023-02-10T10:29:23;85857.10;;;-7.42;27.12
36514;BME280;66331;46.796;9.824;2023-02-10T10:32:00;85856.47;;;-6.63;26.97
36514;BME280;66331;46.796;9.824;2023-02-10T10:34:30;85851.14;;;-6.85;27.62
36514;BME280;66331;46.796;9.824;2023-02-10T10:36:59;85850.36;;;-7.07;27.25
36514;BME280;66331;46.796;9.824;2023-02-10T10:39:31;85845.36;;;-6.60;26.63
36514;BME280;66331;46.796;9.824;2023-02-10T10:42:02;85844.39;;;-6.42;27.03
36514;BME280;66331;46.796;9.824;2023-02-10T10:44:32;85842.89;;;-6.03;27.44
36514;BME280;66331;46.796;9.824;2023-02-10T10:47:04;85841.54;;;-6.06;27.28
36514;BME280;66331;46.796;9.824;2023-02-10T10:49:32;85839.79;;;-5.77;27.04
36514;BME280;66331;46.796;9.824;2023-02-10T10:51:59;85838.58;;;-5.04;26.20
36514;BME280;66331;46.796;9.824;2023-02-10T10:54:26;85838.82;;;-5.34;26.48
36514;BME280;66331;46.796;9.824;2023-02-10T10:56:58;85838.01;;;-4.99;24.84
36514;BME280;66331;46.796;9.824;2023-02-10T10:59:31;85836.32;;;-4.88;24.92
36514;BME280;66331;46.796;9.824;2023-02-10T11:02:10;85835.34;;;-5.33;25.26
36514;BME280;66331;46.796;9.824;2023-02-10T11:04:38;85832.17;;;-5.15;25.15
36514;BME280;66331;46.796;9.824;2023-02-10T11:07:09;85828.40;;;-5.10;25.05
36514;BME280;66331;46.796;9.824;2023-02-10T11:09:40;85827.16;;;-5.03;25.34
36514;BME280;66331;46.796;9.824;2023-02-10T11:12:17;85831.55;;;-4.50;24.15
36514;BME280;66331;46.796;9.824;2023-02-10T11:14:49;85831.14;;;-4.38;24.11
36514;BME280;66331;46.796;9.824;2023-02-10T11:17:24;85830.91;;;-4.54;22.89
36514;BME280;66331;46.796;9.824;2023-02-10T11:19:54;85829.57;;;-4.16;22.93
36514;BME280;66331;46.796;9.824;2023-02-10T11:22:22;85829.80;;;-4.26;23.37
36514;BME280;66331;46.796;9.824;2023-02-10T11:24:50;85827.87;;;-4.64;22.68
36514;BME280;66331;46.796;9.824;2023-02-10T11:27:18;85822.34;;;-4.37;21.95
36514;BME280;66331;46.796;9.824;2023-02-10T11:29:48;85819.72;;;-4.01;22.89
36514;BME280;66331;46.796;9.824;2023-02-10T11:32:19;85815.91;;;-3.95;23.21
36514;BME280;66331;46.796;9.824;2023-02-10T11:34:48;85810.83;;;-4.20;23.01
36514;BME280;66331;46.796;9.824;2023-02-10T11:37:27;85807.34;;;-3.63;22.13
36514;BME280;66331;46.796;9.824;2023-02-10T11:39:57;85803.19;;;-3.58;21.24
36514;BME280;66331;46.796;9.824;2023-02-10T11:42:27;85802.76;;;-4.24;23.20
36514;BME280;66331;46.796;9.824;2023-02-10T11:44:57;85800.35;;;-4.04;22.01
36514;BME280;66331;46.796;9.824;2023-02-10T11:47:27;85796.17;;;-3.87;21.40
36514;BME280;66331;46.796;9.824;2023-02-10T11:49:55;85792.83;;;-3.74;21.62
36514;BME280;66331;46.796;9.824;2023-02-10T11:52:25;85791.83;;;-3.70;21.78
36514;BME280;66331;46.796;9.824;2023-02-10T11:54:54;85784.53;;;-3.37;22.49
36514;BME280;66331;46.796;9.824;2023-02-10T11:57:30;85781.14;;;-3.06;22.05
36514;BME280;66331;46.796;9.824;2023-02-10T12:00:10;85779.22;;;-3.21;24.76
36514;BME280;66331;46.796;9.824;2023-02-10T12:02:59;85774.73;;;-3.31;23.26
36514;BME280;66331;46.796;9.824;2023-02-10T12:05:38;85777.51;;;-2.56;22.04
36514;BME280;66331;46.796;9.824;2023-02-10T12:08:13;85772.79;;;-2.34;21.53
36514;BME280;66331;46.796;9.824;2023-02-10T12:10:47;85768.86;;;-2.04;21.02
36514;BME280;66331;46.796;9.824;2023-02-10T12:13:19;85772.84;;;-2.42;20.52
36514;BME280;66331;46.796;9.824;2023-02-10T12:15:58;85772.10;;;-2.54;21.39
36514;BME280;66331;46.796;9.824;2023-02-10T12:18:40;85767.73;;;-2.01;21.66
36514;BME280;66331;46.796;9.824;2023-02-10T12:21:22;85771.00;;;-2.41;20.94
36514;BME280;66331;46.796;9.824;2023-02-10T12:24:03;85769.80;;;-2.79;21.76
36514;BME280;66331;46.796;9.824;2023-02-10T12:26:42;85770.58;;;-1.98;21.19
36514;BME280;66331;46.796;9.824;2023-02-10T12:29:21;85769.43;;;-2.64;20.90
36514;BME280;66331;46.796;9.824;2023-02-10T12:31:59;85766.74;;;-2.32;20.49
36514;BME280;66331;46.796;9.824;2023-02-10T12:34:40;85762.62;;;-1.90;19.26
36514;BME280;66331;46.796;9.824;2023-02-10T12:37:21;85761.37;;;-1.93;19.34
36514;BME280;66331;46.796;9.824;2023-02-10T12:40:20;85758.91;;;-1.64;21.48
36514;BME280;66331;46.796;9.824;2023-02-10T12:42:58;85755.39;;;-1.82;19.93
36514;BME280;66331;46.796;9.824;2023-02-10T12:45:32;85753.20;;;-1.53;20.48
36514;BME280;66331;46.796;9.824;2023-02-10T12:48:16;85751.41;;;-1.76;19.49
36514;BME280;66331;46.796;9.824;2023-02-10T12:51:10;85748.99;;;-1.90;20.13
36514;BME280;66331;46.796;9.824;2023-02-10T12:53:50;85750.46;;;-1.67;19.77
36514;BME280;66331;46.796;9.824;2023-02-10T12:56:24;85751.05;;;-1.57;19.60
36514;BME280;66331;46.796;9.824;2023-02-10T12:58:58;85747.59;;;-1.20;18.99
36514;BME280;66331;46.796;9.824;2023-02-10T13:01:31;85745.69;;;-1.48;18.89
36514;BME280;66331;46.796;9.824;2023-02-10T13:04:21;85742.99;;;-0.98;18.32
36514;BME280;66331;46.796;9.824;2023-02-10T13:06:54;85741.21;;;-0.58;19.10
36514;BME280;66331;46.796;9.824;2023-02-10T13:09:28;85743.17;;;-0.68;18.91
36514;BME280;66331;46.796;9.824;2023-02-10T13:12:08;85744.20;;;-0.99;19.21
36514;BME280;66331;46.796;9.824;2023-02-10T13:14:40;85743.94;;;0.01;19.25